Aérodrome :
LOGIN :

S'inscrire | Disclaimer

   EN    FR    IT 

 










Légende :    VFR   VFR Marginal   IFR   IFR Intensif   IFR Très Intensif
Visi : 
Plafond : 
>= 8 km
>= 3000ft
5 à 8 km
1000 à 3000 ft
1500m à 5 km
500 à 1000 ft
800 à 1500m
200 à 500 ft
< 800m
< 200 ft
Symboles :   Orages  Brouillard  Fortes neiges  Fortes précipitations  Vent > 20 kt
SIGMETs :   Divers  Orages  Givrage  Turbulence  Onde Orograph.  Cendres Volcan.






- Altitude de l'aérodrome : 600 ft
- Code IATA : VIE


LOWW - Vienna Schwechat

DERNIER METAR :
  • 170520Z 11003KT 2000 1100N R16/P1500D R29/1500N BCFG BR FEW001 BKN002 06/06 Q1018 TEMPO 0400 FG BKN001

METARs EXPIRÉS :
  • 170450Z 11004KT 5000 BR FEW002 06/06 Q1017 TEMPO 0400 BCFG
  • 170420Z 14005KT 9000 1300N R16/P1500D R29/P1500D BR NSC 06/06 Q1017 TEMPO 0400 BCFG
  • 170350Z 13005KT 9999 1400W R16/P1500U R29/P1500D BR NSC 07/06 Q1017 TEMPO 0400 BCFG
  • 170320Z 17005KT 9999 0900W R16/P1500D R29/P1500D BCFG NSC 05/05 Q1017 TEMPO 0400
  • 170250Z 16005KT 9999 1300W R29/P1500U BR NSC 06/06 Q1017 BECMG 0600 BCFG

TAF TAF LOWW
Valide du 17 à 03h jusqu'au 18 à 09h UTC


170215Z 1703/1809 18005KT CAVOK TX19/1713Z TN06/1704Z
BECMG 1703/1705 1200 BCFG FEW001
PROB40 1705/1707 VRB02KT 0400 FG VV001
BECMG 1707/1709 14010KT CAVOK
BECMG 1801/1803 VRB02KT 0600 BCFG FEW002
PROB40 1804/1807 0300 FG VV001
BECMG 1807/1809 8000 SCT008



MET'MAP, la Météo Aéronautique d'un coup d'oeil ! - Copyright ORBIFLY Décembre 2007 - Disclaimer

ORBIFLY MET'MAP TEAM :

Programmation & Développement : Alexandra Zaïnal
Conception & Développement : Baudouin d'Aumeries
Co-Programmation & Développement : Marc-Olivier Méhu
Soutien technique & logistique : Manuel Goepfert

Contact : metmap@orbifly.com




SOURCES & CREDITS :

   NOAA